Stout, Ohio
Current Conditions -  °F | °C
As of 1:15 PM on Sunday 25 Jan 2015 (Local Time) from KFGX Reporting Station
Overcast Overcast  
Wind Chill: 34°   Ceiling: 9000
Heat Index: 38°   Visibility: 10mi
Dew Point: 32°   Wind: 5mph
Humidity: 80%   Direction: 170°S
Pressure: 29.71"   Gusts: NA
Location:  38.66°N, 83.38°W
Report Text: KFGX 251815Z AUTO 17004KT 10SM OVC090 03/00 A2971 RMK AO2 T00320000
Loading
Personal Weather Stations






























Interactive Weather Map New forecast layout! Learn more

10-Day Weather Forecast

Advertisements
Track Severe Weather on mobile